Terminal Aerodrome Forecast
Issued by NWS

Home | Current Version | Previous Version | Text Only | Print | Product List | Glossary On
Versions: 1 2 3 4 5 6 7 8 9 10 11 12 13 14 15 16 17
000
FTUS41 KBTV 180500
TAFPBG
TAF
KPBG 180537Z 1806/1906 17010KT P6SM SKC
     FM181500 16012G20KT P6SM BKN200
     FM190000 19007KT P6SM VCSH OVC045=

USA.gov is the U.S. government's official web portal to all federal, state and local government web resources and services.